Time;durP1;ratioP1;P1;durP2;ratioP2;P2;SDS_P1;SDS_P2;PMS_P1;PMS_P2;Temp;Humidity;BMP_temperature;BMP_pressure;BME280_temperature;BME280_humidity;BME280_pressure;Samples;Min_cycle;Max_cycle;Signal;HPM_P1;HPM_P2
2023/05/10 00:02:13;;;;;;;2.50;2.30;;;;;;;;;;4997069;28;20189;-48
2023/05/10 00:04:39;;;;;;;3.90;2.67;;;;;;;;;;4992975;28;20216;-48
2023/05/10 00:07:04;;;;;;;4.65;2.70;;;;;;;;;;4996179;28;20191;-48
2023/05/10 00:09:30;;;;;;;4.00;2.78;;;;;;;;;;4994912;28;20569;-48
2023/05/10 00:11:58;;;;;;;3.65;2.53;;;;;;;;;;4996495;28;20244;-48
2023/05/10 00:14:24;;;;;;;3.17;2.85;;;;;;;;;;4997361;28;20169;-48
2023/05/10 00:16:50;;;;;;;3.58;2.85;;;;;;;;;;4997028;28;20235;-48
2023/05/10 00:19:16;;;;;;;2.80;2.50;;;;;;;;;;4995613;28;20189;-49
2023/05/10 00:21:42;;;;;;;2.40;2.15;;;;;;;;;;4995424;28;20185;-49
2023/05/10 00:24:07;;;;;;;4.65;2.65;;;;;;;;;;4996125;28;20235;-48
2023/05/10 00:26:33;;;;;;;3.25;2.40;;;;;;;;;;4996800;28;20189;-48
2023/05/10 00:28:59;;;;;;;4.00;2.28;;;;;;;;;;4995622;28;20185;-47
2023/05/10 00:31:26;;;;;;;2.78;2.55;;;;;;;;;;4996869;28;20185;-48
2023/05/10 00:33:52;;;;;;;2.88;2.58;;;;;;;;;;4997134;28;20184;-50
2023/05/10 00:36:17;;;;;;;2.58;2.30;;;;;;;;;;4995904;28;20205;-49
2023/05/10 00:38:43;;;;;;;2.65;2.45;;;;;;;;;;4995772;28;20188;-48
2023/05/10 00:41:09;;;;;;;2.83;2.40;;;;;;;;;;4996197;28;20243;-48
2023/05/10 00:43:35;;;;;;;3.63;2.58;;;;;;;;;;4996591;28;20283;-49
2023/05/10 00:46:01;;;;;;;4.28;2.45;;;;;;;;;;4995301;28;20182;-49
2023/05/10 00:48:28;;;;;;;3.22;2.38;;;;;;;;;;4995175;28;20185;-49
2023/05/10 00:50:55;;;;;;;3.83;2.30;;;;;;;;;;4996077;28;20508;-49
2023/05/10 00:53:21;;;;;;;3.22;2.67;;;;;;;;;;4994915;28;20181;-49
2023/05/10 00:55:47;;;;;;;2.67;2.40;;;;;;;;;;4995514;28;20197;-49
2023/05/10 00:58:13;;;;;;;3.50;2.22;;;;;;;;;;4994593;28;20488;-49
2023/05/10 01:00:42;;;;;;;3.78;2.65;;;;;;;;;;4995285;28;20185;-48
2023/05/10 01:03:08;;;;;;;3.00;2.40;;;;;;;;;;4994246;28;20185;-49
2023/05/10 01:05:34;;;;;;;2.55;2.35;;;;;;;;;;4995358;28;20268;-49
2023/05/10 01:07:59;;;;;;;3.70;2.35;;;;;;;;;;4995957;28;20299;-49
2023/05/10 01:10:25;;;;;;;2.70;2.50;;;;;;;;;;4994744;28;20203;-49
2023/05/10 01:12:51;;;;;;;2.47;2.28;;;;;;;;;;4995570;28;20185;-47
2023/05/10 01:15:18;;;;;;;2.63;2.30;;;;;;;;;;4979230;28;20189;-48
2023/05/10 01:17:45;;;;;;;3.05;2.65;;;;;;;;;;4995437;28;20221;-48
2023/05/10 01:20:11;;;;;;;2.60;2.30;;;;;;;;;;4994423;28;20186;-49
2023/05/10 01:22:37;;;;;;;4.80;2.72;;;;;;;;;;4994743;28;20185;-49
2023/05/10 01:25:15;;;;;;;2.97;2.67;;;;;;;;;;4994676;28;20208;-49
2023/05/10 01:28:00;;;;;;;3.05;2.38;;;;;;;;;;4994893;28;20195;-48
2023/05/10 01:30:34;;;;;;;2.78;2.50;;;;;;;;;;4991582;28;20192;-48
2023/05/10 01:33:03;;;;;;;3.10;2.60;;;;;;;;;;4995149;28;20533;-48
2023/05/10 01:35:33;;;;;;;2.80;2.47;;;;;;;;;;4988479;28;20224;-49
2023/05/10 01:38:15;;;;;;;4.35;3.22;;;;;;;;;;4978321;28;20213;-49
2023/05/10 01:40:47;;;;;;;5.90;2.45;;;;;;;;;;4993498;28;20536;-49
2023/05/10 01:43:18;;;;;;;2.50;2.30;;;;;;;;;;4995164;28;20236;-49
2023/05/10 01:45:51;;;;;;;5.38;2.95;;;;;;;;;;4994482;28;20264;-49
2023/05/10 01:48:19;;;;;;;3.50;2.78;;;;;;;;;;4995001;28;20196;-49
2023/05/10 01:50:47;;;;;;;2.70;2.25;;;;;;;;;;4994613;28;20324;-49
2023/05/10 01:53:14;;;;;;;3.60;2.65;;;;;;;;;;4993759;28;20188;-49
2023/05/10 01:55:43;;;;;;;2.67;2.47;;;;;;;;;;4994677;28;20487;-49
2023/05/10 01:58:10;;;;;;;2.47;2.15;;;;;;;;;;4994483;28;20531;-49
2023/05/10 02:00:40;;;;;;;2.72;2.50;;;;;;;;;;4993296;28;20196;-48
2023/05/10 02:03:08;;;;;;;3.60;2.55;;;;;;;;;;4995461;28;20772;-49
2023/05/10 02:05:35;;;;;;;3.55;2.47;;;;;;;;;;4995444;28;20196;-48
2023/05/10 02:08:02;;;;;;;3.05;2.55;;;;;;;;;;4995125;28;20271;-48
2023/05/10 02:10:29;;;;;;;2.47;2.28;;;;;;;;;;4993668;28;20181;-48
2023/05/10 02:12:56;;;;;;;2.67;2.47;;;;;;;;;;4995333;28;20208;-49
2023/05/10 02:15:24;;;;;;;2.90;2.70;;;;;;;;;;4993915;28;20193;-49
2023/05/10 02:17:50;;;;;;;3.35;2.58;;;;;;;;;;4994802;28;20209;-48
2023/05/10 02:20:17;;;;;;;3.33;2.58;;;;;;;;;;4993288;28;20178;-49
2023/05/10 02:22:43;;;;;;;2.75;2.55;;;;;;;;;;4994871;28;20200;-48
2023/05/10 02:25:10;;;;;;;3.60;2.72;;;;;;;;;;4994274;28;20204;-48
2023/05/10 02:27:37;;;;;;;3.53;2.42;;;;;;;;;;4994373;28;20181;-48
2023/05/10 02:30:03;;;;;;;3.53;2.60;;;;;;;;;;4992881;28;20327;-48
2023/05/10 02:32:30;;;;;;;4.63;2.35;;;;;;;;;;4994784;28;20231;-48
2023/05/10 02:34:56;;;;;;;2.97;2.78;;;;;;;;;;4994247;28;20254;-48
2023/05/10 02:37:23;;;;;;;2.75;2.45;;;;;;;;;;4993856;28;20208;-48
2023/05/10 02:39:54;;;;;;;3.72;2.75;;;;;;;;;;4993814;28;20196;-48
2023/05/10 02:42:23;;;;;;;3.83;2.50;;;;;;;;;;4993498;28;20561;-48
2023/05/10 02:44:51;;;;;;;2.78;2.58;;;;;;;;;;4991925;28;20193;-48
2023/05/10 02:47:17;;;;;;;4.25;2.92;;;;;;;;;;4994171;28;20192;-48
2023/05/10 02:49:43;;;;;;;3.03;2.53;;;;;;;;;;4993609;28;20220;-48
2023/05/10 02:52:10;;;;;;;2.80;2.40;;;;;;;;;;4994217;28;20591;-48
2023/05/10 02:54:40;;;;;;;4.20;2.70;;;;;;;;;;4993711;28;20189;-48
2023/05/10 02:57:06;;;;;;;3.95;2.90;;;;;;;;;;4992852;28;20204;-49
2023/05/10 02:59:33;;;;;;;3.35;2.70;;;;;;;;;;4993587;28;20204;-49
2023/05/10 03:02:00;;;;;;;2.90;2.63;;;;;;;;;;4993502;28;20261;-49
2023/05/10 03:04:26;;;;;;;3.20;2.90;;;;;;;;;;4994860;28;20187;-49
2023/05/10 03:06:52;;;;;;;3.10;2.65;;;;;;;;;;4993200;28;20487;-49
2023/05/10 03:09:19;;;;;;;2.85;2.55;;;;;;;;;;4993451;28;20268;-49
2023/05/10 03:11:57;;;;;;;3.65;2.90;;;;;;;;;;4994375;28;20177;-49
2023/05/10 03:14:26;;;;;;;2.80;2.55;;;;;;;;;;4993243;28;20189;-49
2023/05/10 03:17:07;;;;;;;4.57;3.15;;;;;;;;;;4994165;28;20223;-48
2023/05/10 03:19:38;;;;;;;5.55;2.40;;;;;;;;;;4985649;28;20579;-48
2023/05/10 03:22:09;;;;;;;7.70;2.85;;;;;;;;;;4993675;28;20520;-49
2023/05/10 03:24:36;;;;;;;3.58;2.70;;;;;;;;;;4995049;28;20600;-49
2023/05/10 03:27:04;;;;;;;4.28;3.08;;;;;;;;;;4994347;28;20212;-49
2023/05/10 03:29:30;;;;;;;3.00;2.50;;;;;;;;;;4993330;28;20181;-49
2023/05/10 03:31:57;;;;;;;5.50;2.70;;;;;;;;;;4993018;28;20188;-49
2023/05/10 03:34:24;;;;;;;2.95;2.70;;;;;;;;;;4992890;28;20510;-49
2023/05/10 03:36:50;;;;;;;3.22;2.70;;;;;;;;;;4994180;28;20231;-49
2023/05/10 03:39:16;;;;;;;6.32;2.90;;;;;;;;;;4993080;28;20192;-49
2023/05/10 03:41:42;;;;;;;5.03;2.80;;;;;;;;;;4994570;28;20186;-49
2023/05/10 03:44:08;;;;;;;6.85;3.13;;;;;;;;;;4994078;28;20208;-49
2023/05/10 03:46:34;;;;;;;6.25;2.95;;;;;;;;;;4993036;28;20193;-49
2023/05/10 03:48:59;;;;;;;5.95;3.00;;;;;;;;;;4994651;28;20188;-49
2023/05/10 03:51:28;;;;;;;6.70;2.92;;;;;;;;;;4996848;28;20468;-49
2023/05/10 03:53:54;;;;;;;6.10;2.83;;;;;;;;;;4997214;28;20185;-49
2023/05/10 03:56:20;;;;;;;15.63;5.28;;;;;;;;;;4997633;28;20291;-48
2023/05/10 03:58:46;;;;;;;49.95;11.77;;;;;;;;;;4996318;28;20216;-48
2023/05/10 04:01:12;;;;;;;62.05;14.38;;;;;;;;;;4996710;28;20185;-49
2023/05/10 04:03:38;;;;;;;40.55;9.65;;;;;;;;;;4997200;28;20181;-47
2023/05/10 04:06:05;;;;;;;40.25;9.68;;;;;;;;;;4998741;28;20181;-47
2023/05/10 04:08:31;;;;;;;41.38;10.38;;;;;;;;;;4997399;28;20424;-48
2023/05/10 04:11:10;;;;;;;43.95;11.15;;;;;;;;;;4997585;28;20595;-48
2023/05/10 04:13:37;;;;;;;38.78;10.98;;;;;;;;;;4990973;28;20181;-49
2023/05/10 04:16:03;;;;;;;47.67;11.88;;;;;;;;;;4997159;28;20581;-49
2023/05/10 04:18:29;;;;;;;35.20;10.68;;;;;;;;;;4995726;28;20181;-49
2023/05/10 04:20:54;;;;;;;42.97;11.40;;;;;;;;;;4996994;28;20189;-47
2023/05/10 04:23:20;;;;;;;36.50;10.30;;;;;;;;;;4997323;28;20182;-48
2023/05/10 04:25:46;;;;;;;41.83;10.40;;;;;;;;;;4996678;28;20185;-49
2023/05/10 04:28:12;;;;;;;43.67;11.00;;;;;;;;;;4996534;28;20208;-47
2023/05/10 04:30:38;;;;;;;44.33;11.02;;;;;;;;;;4996851;28;20509;-48
2023/05/10 04:33:04;;;;;;;45.03;11.45;;;;;;;;;;4996663;28;20189;-48
2023/05/10 04:35:30;;;;;;;37.05;10.63;;;;;;;;;;4996502;28;20181;-47
2023/05/10 04:37:56;;;;;;;35.30;10.93;;;;;;;;;;4996285;28;20212;-47
2023/05/10 04:40:22;;;;;;;31.55;10.82;;;;;;;;;;4994957;28;20188;-47
2023/05/10 04:42:48;;;;;;;34.35;10.07;;;;;;;;;;4996811;28;20181;-47
2023/05/10 04:45:17;;;;;;;37.55;9.88;;;;;;;;;;4978452;28;20188;-47
2023/05/10 04:47:42;;;;;;;42.63;10.57;;;;;;;;;;4996717;28;20220;-47
2023/05/10 04:50:09;;;;;;;34.33;10.20;;;;;;;;;;4994112;28;20181;-46
2023/05/10 04:52:35;;;;;;;32.17;10.07;;;;;;;;;;4995352;28;20462;-47
2023/05/10 04:55:01;;;;;;;32.17;9.32;;;;;;;;;;4995693;28;20196;-49
2023/05/10 04:57:27;;;;;;;29.38;9.38;;;;;;;;;;4995499;28;20225;-49
2023/05/10 04:59:52;;;;;;;33.78;10.45;;;;;;;;;;4994598;28;20188;-49
2023/05/10 05:02:18;;;;;;;25.52;9.20;;;;;;;;;;4996634;28;20188;-49
2023/05/10 05:04:44;;;;;;;30.30;10.00;;;;;;;;;;4996018;28;20189;-48
2023/05/10 05:07:10;;;;;;;26.10;9.45;;;;;;;;;;4995529;28;20344;-48
2023/05/10 05:09:36;;;;;;;28.65;9.15;;;;;;;;;;4994716;28;20185;-48
2023/05/10 05:12:02;;;;;;;29.30;9.45;;;;;;;;;;4995973;28;20196;-48
2023/05/10 05:14:28;;;;;;;27.42;8.77;;;;;;;;;;4995547;28;20209;-47
2023/05/10 05:16:54;;;;;;;25.33;8.98;;;;;;;;;;4996210;28;20275;-46
2023/05/10 05:19:20;;;;;;;25.38;9.82;;;;;;;;;;4990515;28;20221;-48
2023/05/10 05:21:46;;;;;;;31.35;9.00;;;;;;;;;;4993401;28;20605;-49
2023/05/10 05:24:12;;;;;;;27.40;9.55;;;;;;;;;;4995209;28;20264;-49
2023/05/10 05:26:38;;;;;;;24.05;7.55;;;;;;;;;;4994299;28;20203;-49
2023/05/10 05:29:04;;;;;;;28.30;8.63;;;;;;;;;;4994110;28;20268;-49
2023/05/10 05:31:30;;;;;;;28.50;9.13;;;;;;;;;;4993622;28;20189;-49
2023/05/10 05:33:56;;;;;;;27.52;9.18;;;;;;;;;;4995599;28;20208;-49
2023/05/10 05:36:22;;;;;;;21.85;7.63;;;;;;;;;;4994671;28;20254;-49
2023/05/10 05:38:48;;;;;;;21.35;7.60;;;;;;;;;;4994762;28;20227;-49
2023/05/10 05:41:14;;;;;;;16.95;7.18;;;;;;;;;;4994007;28;20213;-49
2023/05/10 05:43:40;;;;;;;17.92;7.25;;;;;;;;;;4996135;28;20188;-49
2023/05/10 05:46:06;;;;;;;18.27;7.20;;;;;;;;;;4994763;28;20223;-49
2023/05/10 05:48:32;;;;;;;21.05;7.53;;;;;;;;;;4991380;28;20204;-49
2023/05/10 05:50:58;;;;;;;16.27;6.93;;;;;;;;;;4994367;28;20307;-48
2023/05/10 05:53:25;;;;;;;23.67;7.72;;;;;;;;;;4993679;28;20177;-48
2023/05/10 05:55:54;;;;;;;22.55;8.43;;;;;;;;;;4994784;28;20258;-48
2023/05/10 05:58:21;;;;;;;20.08;6.88;;;;;;;;;;4992972;28;20669;-48
2023/05/10 06:00:47;;;;;;;16.38;6.35;;;;;;;;;;4994083;28;20473;-49
2023/05/10 06:03:13;;;;;;;19.52;6.63;;;;;;;;;;4994911;28;20268;-49
2023/05/10 06:05:39;;;;;;;20.02;7.10;;;;;;;;;;4995510;28;20538;-49
2023/05/10 06:08:05;;;;;;;18.42;7.07;;;;;;;;;;4994279;28;20312;-49
2023/05/10 06:10:31;;;;;;;15.77;6.68;;;;;;;;;;4992877;28;20181;-49
2023/05/10 06:12:56;;;;;;;20.85;6.63;;;;;;;;;;4994588;28;20284;-48
2023/05/10 06:15:22;;;;;;;17.42;6.53;;;;;;;;;;4994231;28;20291;-48
2023/05/10 06:17:51;;;;;;;16.27;6.60;;;;;;;;;;4994161;28;20209;-49
2023/05/10 06:20:17;;;;;;;15.10;5.85;;;;;;;;;;4993484;28;20189;-49
2023/05/10 06:22:43;;;;;;;14.93;5.88;;;;;;;;;;4994064;28;20572;-49
2023/05/10 06:25:09;;;;;;;14.18;6.13;;;;;;;;;;4993699;28;20349;-49
2023/05/10 06:27:35;;;;;;;12.65;5.95;;;;;;;;;;4993471;28;20201;-49
2023/05/10 06:30:02;;;;;;;13.85;5.70;;;;;;;;;;4992691;28;20200;-49
2023/05/10 06:32:28;;;;;;;13.88;5.93;;;;;;;;;;4986839;28;20398;-49
2023/05/10 06:34:54;;;;;;;12.82;5.63;;;;;;;;;;4994108;28;20189;-49
2023/05/10 06:37:20;;;;;;;13.88;6.07;;;;;;;;;;4994124;28;20216;-49
2023/05/10 06:39:46;;;;;;;16.27;5.88;;;;;;;;;;4992381;28;20208;-49
2023/05/10 06:42:11;;;;;;;12.10;5.40;;;;;;;;;;4993697;28;20204;-48
2023/05/10 06:44:37;;;;;;;15.43;6.20;;;;;;;;;;4992678;28;20219;-48
2023/05/10 06:47:03;;;;;;;13.05;5.72;;;;;;;;;;4993132;28;20192;-48
2023/05/10 06:49:29;;;;;;;11.18;5.15;;;;;;;;;;4993563;28;20185;-48
2023/05/10 06:51:58;;;;;;;12.18;4.72;;;;;;;;;;4992142;28;20457;-49
2023/05/10 06:54:24;;;;;;;13.70;5.60;;;;;;;;;;4992828;28;20196;-47
2023/05/10 06:56:50;;;;;;;9.75;5.78;;;;;;;;;;4987272;28;20216;-47
2023/05/10 06:59:16;;;;;;;17.30;6.10;;;;;;;;;;4992885;28;20264;-48
2023/05/10 07:01:42;;;;;;;10.82;5.22;;;;;;;;;;4994757;28;20181;-48
2023/05/10 07:04:08;;;;;;;10.48;5.00;;;;;;;;;;4994645;28;20192;-47
2023/05/10 07:06:34;;;;;;;12.93;5.10;;;;;;;;;;4993723;28;20266;-47
2023/05/10 07:09:00;;;;;;;7.95;4.65;;;;;;;;;;4994044;28;20177;-47
2023/05/10 07:11:26;;;;;;;8.77;5.03;;;;;;;;;;4994440;28;20207;-47
2023/05/10 07:13:52;;;;;;;10.02;4.93;;;;;;;;;;4994490;28;20203;-47
2023/05/10 07:16:18;;;;;;;8.80;4.72;;;;;;;;;;4993883;28;20220;-47
2023/05/10 07:18:44;;;;;;;8.93;3.97;;;;;;;;;;4994181;28;20583;-47
2023/05/10 07:21:10;;;;;;;12.32;5.10;;;;;;;;;;4993962;28;20264;-47
2023/05/10 07:23:36;;;;;;;10.57;4.82;;;;;;;;;;4997047;28;20242;-47
2023/05/10 07:26:02;;;;;;;10.23;4.70;;;;;;;;;;4998044;28;20454;-47
2023/05/10 07:28:28;;;;;;;9.52;4.32;;;;;;;;;;4997613;28;20181;-48
2023/05/10 07:30:54;;;;;;;10.65;4.82;;;;;;;;;;4998158;28;20181;-48
2023/05/10 07:33:20;;;;;;;8.05;4.07;;;;;;;;;;4997796;28;20569;-48
2023/05/10 07:35:46;;;;;;;9.10;4.65;;;;;;;;;;4996684;28;20185;-48
2023/05/10 07:38:12;;;;;;;10.50;4.78;;;;;;;;;;4996452;28;20287;-48
2023/05/10 07:40:38;;;;;;;9.30;4.00;;;;;;;;;;4996436;28;20212;-48
2023/05/10 07:43:04;;;;;;;7.05;4.13;;;;;;;;;;4997274;28;20212;-48
2023/05/10 07:45:30;;;;;;;10.82;4.60;;;;;;;;;;4994887;28;20555;-48
2023/05/10 07:47:56;;;;;;;8.63;4.05;;;;;;;;;;4997419;28;20416;-48
2023/05/10 07:50:22;;;;;;;9.80;4.25;;;;;;;;;;4995810;28;20312;-48
2023/05/10 07:52:48;;;;;;;7.30;4.07;;;;;;;;;;4995375;28;20743;-48
2023/05/10 07:55:14;;;;;;;9.25;4.15;;;;;;;;;;4996509;28;20580;-48
2023/05/10 07:57:40;;;;;;;7.43;3.58;;;;;;;;;;4996582;28;20240;-48
2023/05/10 08:00:07;;;;;;;7.35;4.05;;;;;;;;;;4997506;28;20209;-48
2023/05/10 08:02:33;;;;;;;7.10;3.95;;;;;;;;;;4996822;28;20177;-48
2023/05/10 08:04:59;;;;;;;8.07;4.30;;;;;;;;;;4996457;28;20235;-48
2023/05/10 08:07:25;;;;;;;8.70;3.90;;;;;;;;;;4995900;28;20189;-48
2023/05/10 08:09:51;;;;;;;9.68;4.38;;;;;;;;;;4996790;28;20560;-48
2023/05/10 08:12:17;;;;;;;7.07;3.97;;;;;;;;;;4995605;28;20185;-48
2023/05/10 08:14:43;;;;;;;6.72;3.47;;;;;;;;;;4997407;28;20208;-48
2023/05/10 08:17:09;;;;;;;6.57;3.67;;;;;;;;;;4995882;28;20323;-48
2023/05/10 08:19:35;;;;;;;7.68;3.75;;;;;;;;;;4995651;28;20585;-47
2023/05/10 08:22:01;;;;;;;5.88;3.60;;;;;;;;;;4996998;28;20256;-47
2023/05/10 08:24:27;;;;;;;7.22;4.05;;;;;;;;;;4996081;28;20553;-47
2023/05/10 08:26:53;;;;;;;9.80;4.20;;;;;;;;;;4996731;28;20280;-47
2023/05/10 08:29:19;;;;;;;5.38;3.65;;;;;;;;;;4996187;28;20465;-48
2023/05/10 08:31:45;;;;;;;6.20;3.40;;;;;;;;;;4996635;28;20227;-48
2023/05/10 08:34:10;;;;;;;5.57;3.30;;;;;;;;;;4996674;28;20216;-48
2023/05/10 08:36:37;;;;;;;4.97;3.00;;;;;;;;;;4994426;28;20209;-48
2023/05/10 08:39:03;;;;;;;7.32;3.78;;;;;;;;;;4978836;28;20186;-48
2023/05/10 08:41:29;;;;;;;5.90;3.65;;;;;;;;;;4996063;28;20182;-48
2023/05/10 08:43:55;;;;;;;5.72;3.25;;;;;;;;;;4995697;28;20185;-48
2023/05/10 08:46:21;;;;;;;6.05;3.40;;;;;;;;;;4996366;28;20466;-48
2023/05/10 08:48:48;;;;;;;5.82;3.55;;;;;;;;;;4990700;28;20188;-48
2023/05/10 08:51:16;;;;;;;4.82;3.20;;;;;;;;;;4995502;28;20188;-48
2023/05/10 08:53:42;;;;;;;6.97;3.53;;;;;;;;;;4995935;28;20300;-48
2023/05/10 08:56:08;;;;;;;7.05;3.72;;;;;;;;;;4995724;28;20521;-48
2023/05/10 08:58:34;;;;;;;4.95;3.15;;;;;;;;;;4995126;28;20271;-48
2023/05/10 09:01:00;;;;;;;5.50;3.30;;;;;;;;;;4996082;28;20226;-48
2023/05/10 09:03:26;;;;;;;6.28;3.33;;;;;;;;;;4995663;28;20571;-48
2023/05/10 09:05:52;;;;;;;5.82;3.35;;;;;;;;;;4995692;28;20702;-48
2023/05/10 09:08:18;;;;;;;5.85;3.30;;;;;;;;;;4995068;28;20184;-47
2023/05/10 09:10:47;;;;;;;5.55;3.20;;;;;;;;;;4995581;28;20583;-47
2023/05/10 09:13:13;;;;;;;6.00;3.22;;;;;;;;;;4992301;28;20185;-47
2023/05/10 09:15:39;;;;;;;5.05;2.92;;;;;;;;;;4995965;28;20200;-47
2023/05/10 09:18:05;;;;;;;5.28;2.85;;;;;;;;;;4995373;28;20219;-47
2023/05/10 09:20:31;;;;;;;5.25;3.10;;;;;;;;;;4993242;28;20181;-48
2023/05/10 09:22:57;;;;;;;4.65;2.60;;;;;;;;;;4995150;28;20236;-48
2023/05/10 09:25:23;;;;;;;5.25;3.13;;;;;;;;;;4996057;28;20415;-48
2023/05/10 09:27:49;;;;;;;5.30;3.00;;;;;;;;;;4994603;28;20537;-47
2023/05/10 09:30:16;;;;;;;4.68;2.65;;;;;;;;;;4994515;28;20185;-47
2023/05/10 09:32:43;;;;;;;4.82;3.15;;;;;;;;;;4995110;28;20213;-48
2023/05/10 09:35:13;;;;;;;5.70;3.22;;;;;;;;;;4994004;28;20199;-48
2023/05/10 09:37:43;;;;;;;6.00;2.95;;;;;;;;;;4994465;28;20287;-48
2023/05/10 09:40:12;;;;;;;4.80;2.80;;;;;;;;;;4994545;28;20486;-48
2023/05/10 09:42:38;;;;;;;4.80;2.90;;;;;;;;;;4994912;28;20181;-48
2023/05/10 09:45:05;;;;;;;5.75;3.47;;;;;;;;;;4994272;28;20268;-48
2023/05/10 09:47:37;;;;;;;5.57;2.70;;;;;;;;;;4995635;28;20264;-48
2023/05/10 09:50:04;;;;;;;4.15;2.72;;;;;;;;;;4993588;28;20312;-48
2023/05/10 09:52:59;;;;;;;4.75;3.03;;;;;;;;;;4995601;28;20181;-48
2023/05/10 09:55:26;;;;;;;5.80;3.10;;;;;;;;;;4978357;28;20204;-48
2023/05/10 09:58:02;;;;;;;5.30;2.45;;;;;;;;;;4993823;28;20220;-48
2023/05/10 10:00:28;;;;;;;3.70;2.75;;;;;;;;;;4994510;28;20234;-48
2023/05/10 10:02:58;;;;;;;3.47;2.75;;;;;;;;;;4995630;28;20188;-48
2023/05/10 10:05:34;;;;;;;4.47;2.90;;;;;;;;;;4995047;28;20176;-48
2023/05/10 10:08:00;;;;;;;3.63;2.47;;;;;;;;;;4994337;28;20212;-48
2023/05/10 10:10:27;;;;;;;3.10;2.33;;;;;;;;;;4995020;28;20251;-48
2023/05/10 10:12:53;;;;;;;3.78;2.58;;;;;;;;;;4995216;28;20207;-48
2023/05/10 10:15:19;;;;;;;4.07;2.38;;;;;;;;;;4977134;28;20204;-48
2023/05/10 10:17:46;;;;;;;3.08;2.38;;;;;;;;;;4994787;28;20200;-48
2023/05/10 10:20:12;;;;;;;4.30;2.60;;;;;;;;;;4993423;28;20184;-48
2023/05/10 10:22:38;;;;;;;2.75;2.30;;;;;;;;;;4977973;28;20192;-48
2023/05/10 10:25:05;;;;;;;2.78;2.35;;;;;;;;;;4994753;28;20422;-48
2023/05/10 10:27:48;;;;;;;2.67;2.33;;;;;;;;;;4994557;28;20249;-48
2023/05/10 10:30:36;;;;;;;3.80;2.20;;;;;;;;;;4994542;28;20189;-48
2023/05/10 10:33:21;;;;;;;4.03;2.45;;;;;;;;;;4993974;28;20469;-48
2023/05/10 10:35:47;;;;;;;3.28;2.40;;;;;;;;;;4988015;28;20220;-48
2023/05/10 10:38:13;;;;;;;2.97;2.30;;;;;;;;;;4993609;28;20220;-48
2023/05/10 10:40:40;;;;;;;3.33;2.42;;;;;;;;;;4990861;28;20227;-48
2023/05/10 10:43:22;;;;;;;4.03;2.60;;;;;;;;;;4993476;28;20189;-48
2023/05/10 10:46:08;;;;;;;3.95;2.30;;;;;;;;;;4993064;28;20443;-48
2023/05/10 10:48:34;;;;;;;4.00;2.63;;;;;;;;;;4984218;28;20565;-48
2023/05/10 10:51:00;;;;;;;2.67;2.10;;;;;;;;;;4992537;28;20212;-47
2023/05/10 10:53:28;;;;;;;3.10;2.28;;;;;;;;;;4993869;28;20555;-48
2023/05/10 10:56:03;;;;;;;4.78;2.40;;;;;;;;;;4993891;28;20580;-48
2023/05/10 10:58:30;;;;;;;3.13;2.08;;;;;;;;;;4992836;28;20259;-48
2023/05/10 11:01:13;;;;;;;5.00;2.88;;;;;;;;;;4993389;28;20575;-48
2023/05/10 11:03:39;;;;;;;2.63;1.92;;;;;;;;;;4990751;28;20561;-48
2023/05/10 11:06:05;;;;;;;2.65;2.20;;;;;;;;;;4991536;28;20237;-48
2023/05/10 11:08:32;;;;;;;2.80;2.10;;;;;;;;;;4992545;28;20307;-48
2023/05/10 11:11:00;;;;;;;3.97;2.38;;;;;;;;;;4993582;28;20197;-48
2023/05/10 11:13:31;;;;;;;3.17;1.75;;;;;;;;;;4993817;28;20188;-47
2023/05/10 11:15:58;;;;;;;2.85;1.88;;;;;;;;;;4992049;28;20223;-47
2023/05/10 11:18:25;;;;;;;3.33;2.13;;;;;;;;;;4992591;28;20208;-47
2023/05/10 11:20:52;;;;;;;4.95;2.28;;;;;;;;;;4987129;28;20197;-49
2023/05/10 11:23:19;;;;;;;3.50;1.92;;;;;;;;;;4993308;28;20193;-50
2023/05/10 11:25:46;;;;;;;6.28;2.35;;;;;;;;;;4993719;28;20192;-49
2023/05/10 11:28:12;;;;;;;2.53;2.00;;;;;;;;;;4994151;28;20197;-49
2023/05/10 11:30:39;;;;;;;3.30;2.00;;;;;;;;;;4992548;28;20556;-49
2023/05/10 11:33:05;;;;;;;4.38;2.38;;;;;;;;;;4993894;28;20185;-48
2023/05/10 11:35:31;;;;;;;3.53;1.75;;;;;;;;;;4992757;28;20204;-49
2023/05/10 11:37:57;;;;;;;3.20;1.80;;;;;;;;;;4993303;28;20209;-50
2023/05/10 11:40:26;;;;;;;4.38;1.63;;;;;;;;;;4992837;28;20521;-48
2023/05/10 11:42:56;;;;;;;3.42;2.10;;;;;;;;;;4993759;28;20201;-48
2023/05/10 11:45:24;;;;;;;6.45;2.67;;;;;;;;;;4992912;28;20221;-49
2023/05/10 11:47:50;;;;;;;3.13;1.77;;;;;;;;;;4994384;28;20197;-50
2023/05/10 11:50:16;;;;;;;3.65;1.85;;;;;;;;;;4992047;28;20196;-49
2023/05/10 11:52:41;;;;;;;2.88;2.05;;;;;;;;;;4994418;28;20271;-48
2023/05/10 11:55:07;;;;;;;3.10;1.75;;;;;;;;;;4993688;28;20216;-49
2023/05/10 11:57:33;;;;;;;4.07;1.70;;;;;;;;;;4992844;28;20240;-49
2023/05/10 12:00:00;;;;;;;3.10;2.03;;;;;;;;;;4993118;28;20185;-49
2023/05/10 12:02:26;;;;;;;4.43;2.00;;;;;;;;;;4994250;28;20264;-49
2023/05/10 12:04:52;;;;;;;2.95;1.70;;;;;;;;;;4992863;28;20522;-49
2023/05/10 12:07:18;;;;;;;2.00;1.55;;;;;;;;;;4993468;28;20323;-49
2023/05/10 12:10:03;;;;;;;3.60;1.83;;;;;;;;;;4994530;28;20541;-49
2023/05/10 12:12:35;;;;;;;3.85;2.00;;;;;;;;;;4997077;28;20809;-49
2023/05/10 12:15:03;;;;;;;3.88;2.05;;;;;;;;;;4977310;28;20289;-49
2023/05/10 12:17:29;;;;;;;1.88;1.75;;;;;;;;;;4996512;28;20204;-49
2023/05/10 12:19:59;;;;;;;3.13;2.08;;;;;;;;;;4996351;28;20181;-49
2023/05/10 12:22:25;;;;;;;2.88;1.75;;;;;;;;;;4979618;28;20227;-49
2023/05/10 12:24:51;;;;;;;2.25;1.63;;;;;;;;;;4996406;28;20264;-49
2023/05/10 12:27:17;;;;;;;7.40;1.80;;;;;;;;;;4997334;28;20250;-49
2023/05/10 12:29:44;;;;;;;3.55;2.08;;;;;;;;;;4995769;28;20584;-49
2023/05/10 12:32:10;;;;;;;2.60;1.80;;;;;;;;;;4997324;28;20417;-49
2023/05/10 12:34:38;;;;;;;3.33;1.90;;;;;;;;;;4994378;28;20219;-49
2023/05/10 12:37:04;;;;;;;5.95;1.70;;;;;;;;;;4996458;28;20241;-49
2023/05/10 12:39:40;;;;;;;2.13;1.60;;;;;;;;;;4995280;28;20208;-49
2023/05/10 12:42:06;;;;;;;2.70;1.73;;;;;;;;;;4996698;28;20265;-49
2023/05/10 12:44:32;;;;;;;4.97;1.92;;;;;;;;;;4995977;28;20196;-49
2023/05/10 12:46:57;;;;;;;2.72;1.63;;;;;;;;;;4995368;28;20181;-49
2023/05/10 12:49:23;;;;;;;2.28;1.83;;;;;;;;;;4995254;28;20181;-49
2023/05/10 12:51:49;;;;;;;3.88;1.55;;;;;;;;;;4995077;28;20275;-49
2023/05/10 12:54:15;;;;;;;1.85;1.50;;;;;;;;;;4996632;28;20193;-49
2023/05/10 12:56:42;;;;;;;2.45;1.50;;;;;;;;;;4995434;28;20227;-49
2023/05/10 12:59:08;;;;;;;4.95;1.58;;;;;;;;;;4995839;28;20210;-49
2023/05/10 13:01:34;;;;;;;4.43;1.33;;;;;;;;;;4996025;28;20451;-49
2023/05/10 13:04:00;;;;;;;2.47;1.48;;;;;;;;;;4996016;28;20185;-49
2023/05/10 13:06:26;;;;;;;2.88;1.42;;;;;;;;;;4995199;28;20196;-49
2023/05/10 13:08:52;;;;;;;2.13;1.70;;;;;;;;;;4994668;28;20181;-48
2023/05/10 13:11:19;;;;;;;1.80;1.42;;;;;;;;;;4995965;28;20311;-49
2023/05/10 13:13:45;;;;;;;2.55;1.73;;;;;;;;;;4993917;28;20626;-49
2023/05/10 13:16:11;;;;;;;2.15;1.60;;;;;;;;;;4995424;28;20478;-49
2023/05/10 13:18:37;;;;;;;4.35;1.75;;;;;;;;;;4994565;28;20213;-49
2023/05/10 13:21:05;;;;;;;2.05;1.52;;;;;;;;;;4991239;28;20253;-49
2023/05/10 13:23:31;;;;;;;1.88;1.30;;;;;;;;;;4995320;28;20177;-49
2023/05/10 13:25:57;;;;;;;3.63;1.67;;;;;;;;;;4994525;28;20181;-49
2023/05/10 13:28:23;;;;;;;2.00;1.60;;;;;;;;;;4994302;28;20192;-49
2023/05/10 13:30:49;;;;;;;3.10;1.70;;;;;;;;;;4995613;28;20189;-48
2023/05/10 13:33:15;;;;;;;2.28;1.33;;;;;;;;;;4994808;28;20189;-48
2023/05/10 13:35:40;;;;;;;1.85;1.58;;;;;;;;;;4995252;28;20212;-49
2023/05/10 13:38:07;;;;;;;1.50;1.40;;;;;;;;;;4993854;28;20208;-49
2023/05/10 13:40:33;;;;;;;3.20;1.50;;;;;;;;;;4987950;28;20181;-49
2023/05/10 13:42:59;;;;;;;1.35;1.25;;;;;;;;;;4978187;28;20184;-49
2023/05/10 13:45:25;;;;;;;2.10;1.92;;;;;;;;;;4994759;28;20173;-49
2023/05/10 13:47:51;;;;;;;2.25;1.63;;;;;;;;;;4977785;28;20232;-48
2023/05/10 13:50:18;;;;;;;2.65;1.40;;;;;;;;;;4993085;28;20452;-48
2023/05/10 13:52:44;;;;;;;1.50;1.20;;;;;;;;;;4995330;28;20213;-49
2023/05/10 13:55:12;;;;;;;2.17;1.30;;;;;;;;;;4994964;28;20236;-49
2023/05/10 13:57:38;;;;;;;3.20;1.05;;;;;;;;;;4993818;28;20213;-50
2023/05/10 14:00:04;;;;;;;1.67;1.20;;;;;;;;;;4994815;28;20777;-50
2023/05/10 14:02:30;;;;;;;2.92;1.42;;;;;;;;;;4994639;28;20177;-49
2023/05/10 14:04:56;;;;;;;1.55;1.17;;;;;;;;;;4989722;28;20183;-49
2023/05/10 14:07:22;;;;;;;2.33;1.30;;;;;;;;;;4993472;28;20192;-49
2023/05/10 14:09:48;;;;;;;1.65;1.42;;;;;;;;;;4990869;28;20185;-49
2023/05/10 14:12:14;;;;;;;1.60;1.40;;;;;;;;;;4992416;28;20509;-49
2023/05/10 14:14:40;;;;;;;2.03;1.40;;;;;;;;;;4995231;28;20527;-49
2023/05/10 14:17:06;;;;;;;1.75;1.30;;;;;;;;;;4994101;28;20216;-49
2023/05/10 14:19:33;;;;;;;1.58;1.20;;;;;;;;;;4993908;28;20193;-49
2023/05/10 14:21:59;;;;;;;1.40;1.30;;;;;;;;;;4993262;28;20217;-49
2023/05/10 14:24:25;;;;;;;1.77;1.02;;;;;;;;;;4994566;28;20223;-48
2023/05/10 14:26:53;;;;;;;1.45;1.30;;;;;;;;;;4993805;28;20556;-48
2023/05/10 14:29:19;;;;;;;1.35;1.25;;;;;;;;;;4993866;28;20208;-48
2023/05/10 14:31:45;;;;;;;1.75;1.30;;;;;;;;;;4994002;28;20181;-48
2023/05/10 14:34:11;;;;;;;1.88;1.30;;;;;;;;;;4994137;28;20654;-48
2023/05/10 14:36:37;;;;;;;1.33;1.20;;;;;;;;;;4993383;28;20209;-48
2023/05/10 14:39:03;;;;;;;1.00;1.00;;;;;;;;;;4976420;28;20430;-48